createdAt,value
2023-04-08T00:00:29.103Z,99.90
2023-04-08T00:02:55.967Z,99.90
2023-04-08T00:05:23.146Z,99.90
2023-04-08T00:07:50.085Z,99.90
2023-04-08T00:10:16.901Z,99.90
2023-04-08T00:12:43.730Z,99.90
2023-04-08T00:15:10.843Z,99.90
2023-04-08T00:17:37.695Z,99.90
2023-04-08T00:20:05.731Z,99.90
2023-04-08T00:22:32.849Z,99.90
2023-04-08T00:24:59.771Z,99.90
2023-04-08T00:27:26.608Z,99.90
2023-04-08T00:29:53.488Z,99.90
2023-04-08T00:32:20.359Z,99.90
2023-04-08T00:34:47.204Z,99.90
2023-04-08T00:37:13.987Z,99.90
2023-04-08T00:39:40.987Z,99.90
2023-04-08T00:42:07.913Z,99.90
2023-04-08T00:44:34.660Z,99.90
2023-04-08T00:47:01.507Z,99.90
2023-04-08T00:49:28.288Z,99.90
2023-04-08T00:51:55.945Z,99.90
2023-04-08T00:54:23.037Z,99.90
2023-04-08T00:56:49.881Z,99.90
2023-04-08T00:59:18.595Z,99.90
2023-04-08T01:01:59.446Z,99.90
2023-04-08T01:04:37.392Z,99.90
2023-04-08T01:07:15.783Z,99.90
2023-04-08T01:09:48.314Z,99.90
2023-04-08T01:12:29.485Z,99.90
2023-04-08T01:15:10.399Z,99.90
2023-04-08T01:17:38.451Z,99.90
2023-04-08T01:20:07.336Z,99.90
2023-04-08T01:23:03.964Z,99.90
2023-04-08T01:25:36.843Z,99.90
2023-04-08T01:28:12.571Z,99.90
2023-04-08T01:30:41.425Z,99.90
2023-04-08T01:33:12.064Z,99.90
2023-04-08T01:35:39.389Z,99.90
2023-04-08T01:38:08.884Z,99.90
2023-04-08T01:40:37.580Z,99.90
2023-04-08T01:43:06.598Z,99.90
2023-04-08T01:45:33.603Z,99.90
2023-04-08T01:48:01.508Z,99.90
2023-04-08T01:50:29.927Z,99.90
2023-04-08T01:52:58.518Z,99.90
2023-04-08T01:55:26.991Z,99.90
2023-04-08T01:57:56.228Z,99.90
2023-04-08T02:00:28.518Z,99.90
2023-04-08T02:02:55.873Z,99.90
2023-04-08T02:05:22.863Z,99.90
2023-04-08T02:07:49.970Z,99.90
2023-04-08T02:10:16.881Z,99.90
2023-04-08T02:12:44.718Z,99.90
2023-04-08T02:15:13.806Z,99.90
2023-04-08T02:17:45.521Z,99.90
2023-04-08T02:20:23.316Z,99.90
2023-04-08T02:22:52.853Z,99.90
2023-04-08T02:25:24.337Z,99.90
2023-04-08T02:27:53.037Z,99.90
2023-04-08T02:30:21.271Z,99.90
2023-04-08T02:32:48.885Z,99.90
2023-04-08T02:35:17.428Z,99.90
2023-04-08T02:37:48.156Z,99.90
2023-04-08T02:40:29.454Z,99.90
2023-04-08T02:42:56.449Z,99.90
2023-04-08T02:45:27.610Z,99.90
2023-04-08T02:47:54.667Z,99.90
2023-04-08T02:50:21.434Z,99.90
2023-04-08T02:52:48.168Z,99.90
2023-04-08T02:55:15.007Z,99.90
2023-04-08T02:57:42.624Z,99.90
2023-04-08T03:00:10.612Z,99.90
2023-04-08T03:02:37.485Z,99.90
2023-04-08T03:05:05.615Z,99.90
2023-04-08T03:07:32.970Z,99.90
2023-04-08T03:09:59.940Z,99.90
2023-04-08T03:12:29.667Z,99.90
2023-04-08T03:14:56.490Z,99.90
2023-04-08T03:17:23.267Z,99.90
2023-04-08T03:19:50.105Z,99.90
2023-04-08T03:22:16.882Z,99.90
2023-04-08T03:24:43.749Z,99.90
2023-04-08T03:27:10.520Z,99.90
2023-04-08T03:29:37.338Z,99.90
2023-04-08T03:32:04.555Z,99.90
2023-04-08T03:34:31.705Z,99.90
2023-04-08T03:36:58.408Z,99.90
2023-04-08T03:39:25.158Z,99.90
2023-04-08T03:41:51.919Z,99.90
2023-04-08T03:44:18.598Z,99.90
2023-04-08T03:46:45.409Z,99.90
2023-04-08T03:49:12.173Z,99.90
2023-04-08T03:51:38.973Z,99.90
2023-04-08T03:54:06.220Z,99.90
2023-04-08T03:56:32.972Z,99.90
2023-04-08T03:58:59.771Z,99.90
2023-04-08T04:01:26.549Z,99.90
2023-04-08T04:03:53.429Z,99.90
2023-04-08T04:06:20.350Z,99.90
2023-04-08T04:08:47.227Z,99.90
2023-04-08T04:11:14.033Z,99.90
2023-04-08T04:13:46.126Z,99.90
2023-04-08T04:16:13.155Z,99.90
2023-04-08T04:18:40.078Z,99.90
2023-04-08T04:21:10.292Z,99.90
2023-04-08T04:23:37.122Z,99.90
2023-04-08T04:26:09.658Z,99.90
2023-04-08T04:28:37.056Z,99.90
2023-04-08T04:31:04.298Z,99.90
2023-04-08T04:33:31.766Z,99.90
2023-04-08T04:35:58.600Z,99.90
2023-04-08T04:38:25.715Z,99.90
2023-04-08T04:40:52.594Z,99.90
2023-04-08T04:43:19.433Z,99.90
2023-04-08T04:45:46.471Z,99.90
2023-04-08T04:48:13.276Z,99.90
2023-04-08T04:50:40.205Z,99.90
2023-04-08T04:53:06.986Z,99.90
2023-04-08T04:55:33.814Z,99.90
2023-04-08T04:58:00.556Z,99.90
2023-04-08T05:00:27.332Z,99.90
2023-04-08T05:02:54.208Z,99.90
2023-04-08T05:05:21.129Z,99.90
2023-04-08T05:07:47.995Z,99.90
2023-04-08T05:10:14.706Z,99.90
2023-04-08T05:12:41.466Z,99.90
2023-04-08T05:15:08.637Z,99.90
2023-04-08T05:17:35.642Z,99.90
2023-04-08T05:20:02.947Z,99.90
2023-04-08T05:22:29.693Z,99.90
2023-04-08T05:24:56.440Z,99.90
2023-04-08T05:27:23.234Z,99.90
2023-04-08T05:29:50.087Z,99.90
2023-04-08T05:32:17.132Z,99.90
2023-04-08T05:34:44.443Z,99.90
2023-04-08T05:37:11.559Z,99.90
2023-04-08T05:39:38.350Z,99.90
2023-04-08T05:42:05.167Z,99.90
2023-04-08T05:44:31.997Z,99.90
2023-04-08T05:47:00.287Z,99.90
2023-04-08T05:49:27.248Z,99.90
2023-04-08T05:51:54.121Z,99.90
2023-04-08T05:54:21.055Z,99.90
2023-04-08T05:56:48.953Z,99.90
2023-04-08T05:59:15.890Z,99.90
2023-04-08T06:01:42.742Z,99.90
2023-04-08T06:04:09.734Z,99.90
2023-04-08T06:06:41.978Z,99.90
2023-04-08T06:09:10.060Z,99.90
2023-04-08T06:11:36.879Z,99.90
2023-04-08T06:14:03.788Z,99.90
2023-04-08T06:16:30.616Z,99.90
2023-04-08T06:18:57.542Z,99.90
2023-04-08T06:21:24.424Z,99.90
2023-04-08T06:23:51.277Z,99.90
2023-04-08T06:26:18.382Z,99.90
2023-04-08T06:28:45.311Z,99.90
2023-04-08T06:31:12.165Z,99.90
2023-04-08T06:33:39.055Z,99.90
2023-04-08T06:36:07.307Z,99.90
2023-04-08T06:38:34.404Z,99.90
2023-04-08T06:41:05.113Z,99.90
2023-04-08T06:43:32.570Z,99.90
2023-04-08T06:45:59.490Z,99.90
2023-04-08T06:48:30.528Z,99.90
2023-04-08T06:50:59.020Z,99.90
2023-04-08T06:53:26.938Z,99.90
2023-04-08T06:55:53.746Z,99.90
2023-04-08T06:58:20.828Z,99.90
2023-04-08T07:00:47.777Z,99.90
2023-04-08T07:03:14.642Z,99.90
2023-04-08T07:05:42.419Z,99.90
2023-04-08T07:08:09.506Z,99.90
2023-04-08T07:10:36.529Z,99.90
2023-04-08T07:13:03.876Z,99.90
2023-04-08T07:15:30.960Z,99.90
2023-04-08T07:17:58.697Z,99.90
2023-04-08T07:20:26.217Z,99.90
2023-04-08T07:22:53.023Z,99.90
2023-04-08T07:25:19.947Z,99.90
2023-04-08T07:27:46.819Z,99.90
2023-04-08T07:30:13.707Z,99.90
2023-04-08T07:32:41.085Z,99.90
2023-04-08T07:35:08.227Z,99.90
2023-04-08T07:37:35.120Z,99.90
2023-04-08T07:40:02.009Z,99.90
2023-04-08T07:42:29.127Z,99.90
2023-04-08T07:44:55.920Z,99.90
2023-04-08T07:47:22.825Z,99.90
2023-04-08T07:49:49.850Z,99.90
2023-04-08T07:52:16.590Z,99.90
2023-04-08T07:54:43.429Z,99.90
2023-04-08T07:57:11.586Z,99.90
2023-04-08T07:59:38.436Z,99.90
2023-04-08T08:02:05.303Z,99.90
2023-04-08T08:04:32.874Z,99.90
2023-04-08T08:06:59.879Z,99.90
2023-04-08T08:09:26.865Z,99.90
2023-04-08T08:11:53.843Z,99.90
2023-04-08T08:14:21.744Z,99.90
2023-04-08T08:16:49.704Z,99.90
2023-04-08T08:19:16.592Z,99.90
2023-04-08T08:21:43.561Z,99.90
2023-04-08T08:24:10.672Z,99.90
2023-04-08T08:26:37.618Z,99.90
2023-04-08T08:29:05.259Z,99.90
2023-04-08T08:31:32.255Z,99.90
2023-04-08T08:33:59.131Z,99.90
2023-04-08T08:36:27.410Z,99.90
2023-04-08T08:38:54.568Z,99.90
2023-04-08T08:41:21.883Z,99.90
2023-04-08T08:43:49.181Z,99.90
2023-04-08T08:46:18.342Z,99.90
2023-04-08T08:48:46.092Z,99.90
2023-04-08T08:51:13.982Z,99.90
2023-04-08T08:53:45.441Z,99.90
2023-04-08T08:56:18.244Z,99.90
2023-04-08T08:58:45.766Z,99.90
2023-04-08T09:01:33.173Z,99.90
2023-04-08T09:28:41.854Z,99.90
2023-04-08T09:31:19.871Z,99.90
2023-04-08T09:33:48.592Z,99.90
2023-04-08T09:36:16.793Z,99.90
2023-04-08T09:38:44.491Z,99.90
2023-04-08T09:41:16.208Z,99.90
2023-04-08T09:43:55.712Z,99.90
2023-04-08T09:46:44.148Z,99.90
2023-04-08T09:49:27.619Z,99.90
2023-04-08T09:52:06.410Z,99.90
2023-04-08T09:54:57.014Z,99.90
2023-04-08T09:57:52.998Z,99.90
2023-04-08T10:00:23.531Z,99.90
2023-04-08T10:03:19.425Z,99.90
2023-04-08T10:05:47.293Z,99.90
2023-04-08T10:08:15.970Z,99.90
2023-04-08T10:10:44.090Z,99.90
2023-04-08T10:13:11.876Z,99.90
2023-04-08T10:15:40.896Z,99.90
2023-04-08T10:18:10.579Z,99.90
2023-04-08T10:20:37.515Z,99.90
2023-04-08T10:23:10.715Z,99.80
2023-04-08T10:25:38.678Z,99.90
2023-04-08T10:28:11.882Z,99.90
2023-04-08T10:30:40.052Z,99.30
2023-04-08T10:33:13.250Z,97.70
2023-04-08T10:35:53.652Z,97.00
2023-04-08T10:38:21.524Z,96.20
2023-04-08T10:40:49.665Z,96.90
2023-04-08T10:43:16.772Z,94.40
2023-04-08T10:45:47.931Z,94.10
2023-04-08T10:48:25.433Z,93.90
2023-04-08T10:51:02.991Z,93.70
2023-04-08T10:53:37.655Z,93.20
2023-04-08T10:56:16.450Z,93.70
2023-04-08T10:58:51.181Z,92.50
2023-04-08T11:01:18.649Z,93.00
2023-04-08T11:03:49.501Z,93.40
2023-04-08T11:06:17.616Z,92.30
2023-04-08T11:08:44.917Z,92.70
2023-04-08T11:11:12.187Z,92.20
2023-04-08T11:13:52.700Z,90.90
2023-04-08T11:16:22.053Z,91.00
2023-04-08T11:18:50.502Z,91.00
2023-04-08T11:21:17.412Z,90.00
2023-04-08T11:23:44.237Z,89.80
2023-04-08T11:26:12.252Z,90.20
2023-04-08T11:28:40.400Z,89.50
2023-04-08T11:31:08.895Z,90.20
2023-04-08T11:33:36.384Z,90.10
2023-04-08T11:36:08.492Z,90.10
2023-04-08T11:38:40.518Z,89.90
2023-04-08T11:41:07.832Z,89.00
2023-04-08T11:43:36.614Z,89.70
2023-04-08T11:46:12.974Z,88.80
2023-04-08T11:48:40.572Z,87.60
2023-04-08T11:51:12.447Z,87.40
2023-04-08T11:53:39.267Z,87.30
2023-04-08T11:56:20.275Z,86.70
2023-04-08T11:58:47.899Z,87.30
2023-04-08T12:01:14.867Z,84.70
2023-04-08T12:03:59.470Z,83.40
2023-04-08T12:06:27.302Z,83.40
2023-04-08T12:08:55.912Z,83.60
2023-04-08T12:11:23.536Z,84.00
2023-04-08T12:13:51.478Z,83.20
2023-04-08T12:16:20.379Z,82.30
2023-04-08T12:18:47.675Z,82.60
2023-04-08T12:21:14.727Z,81.90
2023-04-08T12:23:41.692Z,79.50
2023-04-08T12:26:08.644Z,80.10
2023-04-08T12:28:36.202Z,79.00
2023-04-08T12:31:03.338Z,79.70
2023-04-08T12:33:30.684Z,79.70
2023-04-08T12:35:59.301Z,79.20
2023-04-08T12:38:27.069Z,79.70
2023-04-08T12:40:54.280Z,79.90
2023-04-08T12:43:22.075Z,79.70
2023-04-08T12:45:49.106Z,79.60
2023-04-08T12:48:16.039Z,79.40
2023-04-08T12:50:42.880Z,78.10
2023-04-08T12:53:10.743Z,77.90
2023-04-08T12:55:37.638Z,78.60
2023-04-08T12:58:05.558Z,77.70
2023-04-08T13:00:32.495Z,79.00
2023-04-08T13:02:59.397Z,79.30
2023-04-08T13:05:39.819Z,79.80
2023-04-08T13:08:10.016Z,80.50
2023-04-08T13:10:36.864Z,80.60
2023-04-08T13:13:04.215Z,80.80
2023-04-08T13:15:31.238Z,81.00
2023-04-08T13:17:58.027Z,81.30
2023-04-08T13:20:26.178Z,81.90
2023-04-08T13:22:53.552Z,82.70
2023-04-08T13:25:20.583Z,81.70
2023-04-08T13:27:47.452Z,82.70
2023-04-08T13:30:14.319Z,82.50
2023-04-08T13:32:41.377Z,83.80
2023-04-08T13:35:09.289Z,83.70
2023-04-08T13:37:36.361Z,83.30
2023-04-08T13:40:03.862Z,83.40
2023-04-08T13:42:33.387Z,83.40
2023-04-08T13:45:00.749Z,83.50
2023-04-08T13:47:31.111Z,83.30
2023-04-08T13:49:57.913Z,83.30
2023-04-08T13:52:24.847Z,83.60
2023-04-08T13:54:51.638Z,83.60
2023-04-08T13:57:18.374Z,84.40
2023-04-08T13:59:45.411Z,84.40
2023-04-08T14:02:12.942Z,84.20
2023-04-08T14:04:40.184Z,84.30
2023-04-08T14:07:07.123Z,83.40
2023-04-08T14:09:33.932Z,83.70
2023-04-08T14:12:03.597Z,84.50
2023-04-08T14:14:30.513Z,83.90
2023-04-08T14:16:57.424Z,84.10
2023-04-08T14:19:24.566Z,84.50
2023-04-08T14:21:51.398Z,83.10
2023-04-08T14:24:19.169Z,84.50
2023-04-08T14:26:46.201Z,83.50
2023-04-08T14:29:12.995Z,82.40
2023-04-08T14:31:39.756Z,82.50
2023-04-08T14:34:06.490Z,82.60
2023-04-08T14:36:33.777Z,82.90
2023-04-08T14:39:00.610Z,83.50
2023-04-08T14:41:27.486Z,83.50
2023-04-08T14:43:54.524Z,84.20
2023-04-08T14:46:21.726Z,84.70
2023-04-08T14:48:49.120Z,84.80
2023-04-08T14:51:16.099Z,85.20
2023-04-08T14:53:42.831Z,85.70
2023-04-08T14:56:09.745Z,86.80
2023-04-08T14:58:36.696Z,87.50
2023-04-08T15:01:03.799Z,88.70
2023-04-08T15:03:30.815Z,89.50
2023-04-08T15:05:58.764Z,90.10
2023-04-08T15:08:25.671Z,90.50
2023-04-08T15:10:52.565Z,90.60
2023-04-08T15:13:19.347Z,90.80
2023-04-08T15:15:46.242Z,90.80
2023-04-08T15:18:13.083Z,90.90
2023-04-08T15:20:39.893Z,91.20
2023-04-08T15:23:06.794Z,90.60
2023-04-08T15:25:33.720Z,90.40
2023-04-08T15:28:02.560Z,90.70
2023-04-08T15:30:35.126Z,90.60
2023-04-08T15:33:05.346Z,90.90
2023-04-08T15:35:32.884Z,90.80
2023-04-08T15:38:00.695Z,91.10
2023-04-08T15:40:27.850Z,90.40
2023-04-08T15:42:54.755Z,90.70
2023-04-08T15:45:22.177Z,90.90
2023-04-08T15:47:49.283Z,90.60
2023-04-08T15:50:17.284Z,90.70
2023-04-08T15:52:44.469Z,90.70
2023-04-08T15:55:11.376Z,90.80
2023-04-08T15:57:38.078Z,91.00
2023-04-08T16:00:11.875Z,91.20
2023-04-08T16:02:40.324Z,90.90
2023-04-08T16:05:07.673Z,90.90
2023-04-08T16:07:34.489Z,91.10
2023-04-08T16:10:01.627Z,91.20
2023-04-08T16:12:28.795Z,91.00
2023-04-08T16:14:56.302Z,91.30
2023-04-08T16:17:23.783Z,91.30
2023-04-08T16:19:51.891Z,91.40
2023-04-08T16:22:19.446Z,91.60
2023-04-08T16:24:46.386Z,91.70
2023-04-08T16:27:13.581Z,91.40
2023-04-08T16:29:40.596Z,92.10
2023-04-08T16:32:08.815Z,91.30
2023-04-08T16:34:36.211Z,91.90
2023-04-08T16:37:03.154Z,92.00
2023-04-08T16:39:30.719Z,92.50
2023-04-08T16:41:57.435Z,92.90
2023-04-08T16:44:24.317Z,93.20
2023-04-08T16:46:51.366Z,92.90
2023-04-08T16:49:18.441Z,92.90
2023-04-08T16:51:45.305Z,93.30
2023-04-08T16:54:12.220Z,93.70
2023-04-08T16:56:44.131Z,93.20
2023-04-08T16:59:11.324Z,93.50
2023-04-08T17:01:38.314Z,93.70
2023-04-08T17:04:06.582Z,93.80
2023-04-08T17:06:35.107Z,94.00
2023-04-08T17:09:03.822Z,93.90
2023-04-08T17:11:30.985Z,94.10
2023-04-08T17:13:57.825Z,94.40
2023-04-08T17:16:25.069Z,94.70
2023-04-08T17:18:52.350Z,94.70
2023-04-08T17:21:20.116Z,94.80
2023-04-08T17:23:46.911Z,95.10
2023-04-08T17:26:13.602Z,95.40
2023-04-08T17:28:41.813Z,95.30
2023-04-08T17:31:08.661Z,95.30
2023-04-08T17:33:35.417Z,95.60
2023-04-08T17:36:02.739Z,95.60
2023-04-08T17:38:29.670Z,95.80
2023-04-08T17:40:57.200Z,96.00
2023-04-08T17:43:24.151Z,96.90
2023-04-08T17:45:51.623Z,97.00
2023-04-08T17:48:18.795Z,97.00
2023-04-08T17:50:45.723Z,97.50
2023-04-08T17:53:12.532Z,97.40
2023-04-08T17:55:39.446Z,97.50
2023-04-08T17:58:06.349Z,98.10
2023-04-08T18:00:33.181Z,98.10
2023-04-08T18:02:59.997Z,98.60
2023-04-08T18:05:27.258Z,98.20
2023-04-08T18:07:54.121Z,98.70
2023-04-08T18:10:23.122Z,99.10
2023-04-08T18:12:50.821Z,98.70
2023-04-08T18:15:22.075Z,97.90
2023-04-08T18:17:49.370Z,98.30
2023-04-08T18:20:16.156Z,98.30
2023-04-08T18:22:43.128Z,98.20
2023-04-08T18:25:10.292Z,97.10
2023-04-08T18:27:37.109Z,96.50
2023-04-08T18:30:06.773Z,96.00
2023-04-08T18:32:33.776Z,96.20
2023-04-08T18:35:00.641Z,96.60
2023-04-08T18:37:27.358Z,96.80
2023-04-08T18:39:54.286Z,96.60
2023-04-08T18:42:25.002Z,97.20
2023-04-08T18:44:51.835Z,96.80
2023-04-08T18:47:18.903Z,96.80
2023-04-08T18:49:46.363Z,97.20
2023-04-08T18:52:13.799Z,97.00
2023-04-08T18:54:41.443Z,96.90
2023-04-08T18:57:08.302Z,97.30
2023-04-08T18:59:35.224Z,97.20
2023-04-08T19:02:02.265Z,96.90
2023-04-08T19:29:57.448Z,96.40
2023-04-08T19:32:24.358Z,96.30
2023-04-08T19:34:51.216Z,96.30
2023-04-08T19:37:17.960Z,96.60
2023-04-08T19:39:45.521Z,96.70
2023-04-08T19:42:12.280Z,96.60
2023-04-08T19:44:38.988Z,96.50
2023-04-08T19:47:06.043Z,96.80
2023-04-08T19:49:33.410Z,97.00
2023-04-08T19:52:00.858Z,97.20
2023-04-08T19:54:29.590Z,96.80
2023-04-08T19:56:58.155Z,97.10
2023-04-08T19:59:25.512Z,96.50
2023-04-08T20:01:52.245Z,97.10
2023-04-08T20:04:20.081Z,96.70
2023-04-08T20:06:47.154Z,96.70
2023-04-08T20:09:13.875Z,96.80
2023-04-08T20:11:42.156Z,96.60
2023-04-08T20:14:09.056Z,96.60
2023-04-08T20:16:36.235Z,96.30
2023-04-08T20:19:02.950Z,96.90
2023-04-08T20:21:29.768Z,97.90
2023-04-08T20:23:57.686Z,96.90
2023-04-08T20:26:24.592Z,97.90
2023-04-08T20:28:52.078Z,97.10
2023-04-08T20:31:19.501Z,97.50
2023-04-08T20:33:46.422Z,97.60
2023-04-08T20:36:13.765Z,97.90
2023-04-08T20:38:42.637Z,97.90
2023-04-08T20:41:17.277Z,97.30
2023-04-08T20:43:44.306Z,97.50
2023-04-08T20:46:11.105Z,97.40
2023-04-08T20:48:38.086Z,97.60
2023-04-08T20:51:04.902Z,98.10
2023-04-08T20:53:32.000Z,98.70
2023-04-08T20:55:58.771Z,98.10
2023-04-08T20:58:25.675Z,97.80
2023-04-08T21:00:52.428Z,97.90
2023-04-08T21:03:19.400Z,98.10
2023-04-08T21:05:47.159Z,97.90
2023-04-08T21:08:14.006Z,97.40
2023-04-08T21:10:40.897Z,97.30
2023-04-08T21:13:07.743Z,98.00
2023-04-08T21:15:34.983Z,97.70
2023-04-08T21:18:01.973Z,97.80
2023-04-08T21:20:28.905Z,97.60
2023-04-08T21:22:55.698Z,97.90
2023-04-08T21:25:22.476Z,98.00
2023-04-08T21:27:49.440Z,98.10
2023-04-08T21:30:17.869Z,98.70
2023-04-08T21:32:44.877Z,98.60
2023-04-08T21:35:11.656Z,98.20
2023-04-08T21:37:38.425Z,98.20
2023-04-08T21:40:06.030Z,98.90
2023-04-08T21:42:32.985Z,99.10
2023-04-08T21:44:59.851Z,98.90
2023-04-08T21:47:26.608Z,98.80
2023-04-08T21:49:53.421Z,98.90
2023-04-08T21:52:20.231Z,99.20
2023-04-08T21:54:50.948Z,99.20
2023-04-08T21:57:17.890Z,99.20
2023-04-08T21:59:44.985Z,98.90
2023-04-08T22:02:11.999Z,99.10
2023-04-08T22:04:39.020Z,98.90
2023-04-08T22:07:06.409Z,99.60
2023-04-08T22:09:33.250Z,99.70
2023-04-08T22:12:01.604Z,99.50
2023-04-08T22:14:28.467Z,99.50
2023-04-08T22:16:55.334Z,99.90
2023-04-08T22:19:22.176Z,99.60
2023-04-08T22:21:51.211Z,99.70
2023-04-08T22:24:19.170Z,99.60
2023-04-08T22:26:46.194Z,99.70
2023-04-08T22:29:13.169Z,99.80
2023-04-08T22:31:40.109Z,99.80
2023-04-08T22:34:07.145Z,99.90
2023-04-08T22:36:34.134Z,99.80
2023-04-08T22:39:00.926Z,99.90
2023-04-08T22:41:27.685Z,99.90
2023-04-08T22:43:54.512Z,99.90
2023-04-08T22:46:21.264Z,99.90
2023-04-08T22:48:49.554Z,99.90
2023-04-08T22:51:16.984Z,99.90
2023-04-08T22:53:43.742Z,99.90
2023-04-08T22:56:10.834Z,99.90
2023-04-08T22:58:37.626Z,99.90
2023-04-08T23:01:16.998Z,99.90
2023-04-08T23:03:44.401Z,99.90
2023-04-08T23:06:11.529Z,99.90
2023-04-08T23:08:38.850Z,99.90
2023-04-08T23:11:06.580Z,99.90
2023-04-08T23:13:33.640Z,99.90
2023-04-08T23:16:01.377Z,99.90
2023-04-08T23:18:28.348Z,99.90
2023-04-08T23:20:56.712Z,99.90
2023-04-08T23:23:24.548Z,99.90
2023-04-08T23:25:52.567Z,99.90
2023-04-08T23:28:20.572Z,99.90
2023-04-08T23:30:47.525Z,99.90
2023-04-08T23:33:14.398Z,99.90
2023-04-08T23:35:42.118Z,99.90
2023-04-08T23:38:09.266Z,99.90
2023-04-08T23:40:36.022Z,99.90
2023-04-08T23:43:02.974Z,99.90
2023-04-08T23:45:29.774Z,99.90
2023-04-08T23:47:56.655Z,99.90
2023-04-08T23:50:23.568Z,99.90
2023-04-08T23:52:50.345Z,99.90
2023-04-08T23:55:17.270Z,99.90
2023-04-08T23:57:44.219Z,99.90
